Time;durP1;ratioP1;P1;durP2;ratioP2;P2;SDS_P1;SDS_P2;PMS_P1;PMS_P2;Temp;Humidity;BMP_temperature;BMP_pressure;BME280_temperature;BME280_humidity;BME280_pressure;Samples;Min_cycle;Max_cycle;Signal;HPM_P1;HPM_P2
2021/08/14 00:01:51;;;;;;;4.95;2.90;;;18.30;99.90;;;;;;4985888;28;20586;-87
2021/08/14 00:04:18;;;;;;;4.47;2.22;;;18.30;99.90;;;;;;4971397;28;20058;-86
2021/08/14 00:06:45;;;;;;;3.78;2.42;;;18.20;99.90;;;;;;4984471;28;20046;-87
2021/08/14 00:09:12;;;;;;;2.95;2.45;;;18.20;99.90;;;;;;4966020;28;20078;-86
2021/08/14 00:11:39;;;;;;;2.15;1.90;;;18.10;99.90;;;;;;4984199;28;20074;-87
2021/08/14 00:14:06;;;;;;;2.45;2.25;;;18.10;99.90;;;;;;4987948;28;20081;-88
2021/08/14 00:16:33;;;;;;;2.13;1.88;;;18.10;99.90;;;;;;5001946;28;20051;-87
2021/08/14 00:19:00;;;;;;;3.45;2.85;;;18.00;99.90;;;;;;4970867;28;20042;-88
2021/08/14 00:21:30;;;;;;;3.88;2.95;;;18.00;99.90;;;;;;4985087;28;20045;-87
2021/08/14 00:23:57;;;;;;;2.20;2.00;;;18.00;99.90;;;;;;4987403;28;20129;-87
2021/08/14 00:26:23;;;;;;;5.05;2.20;;;18.00;99.90;;;;;;4985953;28;20050;-87
2021/08/14 00:28:50;;;;;;;3.10;2.35;;;18.00;99.90;;;;;;4986563;28;20049;-87
2021/08/14 00:31:18;;;;;;;3.03;2.78;;;17.90;99.90;;;;;;4987655;28;20062;-88
2021/08/14 00:33:45;;;;;;;4.10;2.65;;;17.90;99.90;;;;;;4988321;28;20129;-87
2021/08/14 00:36:12;;;;;;;3.28;2.40;;;17.90;99.90;;;;;;4974038;28;20417;-87
2021/08/14 00:38:39;;;;;;;3.47;2.90;;;17.80;99.90;;;;;;4953380;28;20178;-87
2021/08/14 00:41:06;;;;;;;5.18;2.95;;;17.80;99.90;;;;;;4969044;28;20058;-86
2021/08/14 00:43:33;;;;;;;3.45;2.30;;;17.80;99.90;;;;;;4964167;28;20054;-87
2021/08/14 00:46:00;;;;;;;2.35;1.90;;;17.80;99.90;;;;;;4975138;28;20046;-85
2021/08/14 00:48:34;;;;;;;4.32;2.85;;;17.70;99.90;;;;;;4985001;28;20070;-88
2021/08/14 00:51:01;;;;;;;5.65;2.58;;;17.70;99.90;;;;;;4979894;28;20068;-87
2021/08/14 00:53:28;;;;;;;3.80;2.85;;;17.70;99.90;;;;;;4987117;28;20096;-87
2021/08/14 00:55:56;;;;;;;4.88;2.42;;;17.70;99.90;;;;;;4975505;28;20094;-87
2021/08/14 00:58:23;;;;;;;6.93;2.38;;;17.70;99.90;;;;;;4961417;28;20051;-88
2021/08/14 01:00:50;;;;;;;3.63;2.20;;;17.70;99.90;;;;;;4978545;28;20085;-90
2021/08/14 01:03:18;;;;;;;5.55;3.15;;;17.60;99.90;;;;;;4975602;23;20149;-76
2021/08/14 01:05:46;;;;;;;6.70;2.60;;;17.60;99.90;;;;;;4953383;28;20438;-69
2021/08/14 01:08:16;;;;;;;4.13;2.90;;;17.60;99.90;;;;;;4954068;28;20051;-68
2021/08/14 01:10:44;;;;;;;5.45;2.50;;;17.60;99.90;;;;;;4953638;28;20043;-69
2021/08/14 01:13:11;;;;;;;3.63;2.25;;;17.70;99.90;;;;;;4953373;28;20094;-71
2021/08/14 01:15:51;;;;;;;9.20;2.92;;;17.70;99.90;;;;;;4952053;28;20449;-71
2021/08/14 01:18:18;;;;;;;8.63;2.58;;;17.70;99.90;;;;;;4953489;28;20039;-73
2021/08/14 01:20:46;;;;;;;4.60;2.97;;;17.70;99.90;;;;;;4953268;28;20197;-79
2021/08/14 01:23:14;;;;;;;2.85;2.63;;;17.70;99.90;;;;;;4953272;28;20138;-71
2021/08/14 01:25:44;;;;;;;3.30;3.00;;;17.70;99.90;;;;;;4951983;28;20427;-71
2021/08/14 01:28:13;;;;;;;5.90;3.08;;;17.70;99.90;;;;;;4953563;28;20217;-69
2021/08/14 01:30:42;;;;;;;4.28;2.63;;;17.60;99.90;;;;;;4953051;28;20063;-76
2021/08/14 01:33:12;;;;;;;4.40;3.38;;;17.60;99.90;;;;;;4953091;28;20095;-71
2021/08/14 01:35:42;;;;;;;6.53;3.67;;;17.60;99.90;;;;;;4951418;28;20390;-68
2021/08/14 01:38:09;;;;;;;10.85;3.35;;;17.60;99.90;;;;;;4953424;28;20042;-69
2021/08/14 01:40:36;;;;;;;4.30;3.88;;;17.60;99.90;;;;;;4952876;28;20047;-68
2021/08/14 01:43:04;;;;;;;6.60;4.00;;;17.50;99.90;;;;;;4952748;28;20135;-74
2021/08/14 01:45:31;;;;;;;9.32;4.25;;;17.50;99.90;;;;;;4951177;28;20082;-69
2021/08/14 01:47:57;;;;;;;4.75;4.28;;;17.60;99.90;;;;;;4952738;28;20416;-68
2021/08/14 01:50:25;;;;;;;10.38;3.42;;;17.50;99.90;;;;;;4973584;28;20051;-77
2021/08/14 01:52:55;;;;;;;13.05;4.20;;;17.50;99.90;;;;;;4952518;28;20470;-71
2021/08/14 01:55:22;;;;;;;;;;;17.50;99.90;;;;;;4951539;28;20062;-78
2021/08/14 01:57:49;;;;;;;5.15;4.13;;;17.50;99.90;;;;;;4983386;28;19985;-76
2021/08/14 02:00:16;;;;;;;7.88;4.00;;;17.50;99.90;;;;;;4944028;28;20099;-72
2021/08/14 02:02:43;;;;;;;9.23;4.53;;;17.40;99.90;;;;;;4933347;28;20060;-72
2021/08/14 02:05:12;;;;;;;7.68;4.75;;;17.40;99.90;;;;;;4933243;28;20048;-80
2021/08/14 02:07:39;;;;;;;7.03;3.95;;;17.40;99.90;;;;;;4931506;28;20091;-68
2021/08/14 02:10:06;;;;;;;7.07;4.63;;;17.40;99.90;;;;;;4932926;28;20082;-68
2021/08/14 02:12:33;;;;;;;6.93;4.88;;;17.40;99.90;;;;;;4933124;28;20066;-78
2021/08/14 02:15:00;;;;;;;8.00;4.63;;;17.40;99.90;;;;;;4933398;28;20090;-74
2021/08/14 02:17:27;;;;;;;8.32;4.30;;;17.40;99.90;;;;;;4932106;28;20071;-71
2021/08/14 02:19:54;;;;;;;13.45;4.85;;;17.40;99.90;;;;;;4933461;28;20126;-71
2021/08/14 02:22:21;;;;;;;4.50;4.10;;;17.40;99.90;;;;;;4932965;28;20501;-73
2021/08/14 02:24:48;;;;;;;4.57;4.18;;;17.40;99.90;;;;;;4932913;28;20082;-69
2021/08/14 02:27:14;;;;;;;5.88;4.57;;;17.30;99.90;;;;;;4931631;28;20414;-82
2021/08/14 02:29:41;;;;;;;7.43;4.63;;;17.30;99.90;;;;;;4933000;28;20399;-68
2021/08/14 02:32:08;;;;;;;6.95;4.15;;;17.30;99.90;;;;;;4955124;28;20385;-72
2021/08/14 02:34:35;;;;;;;7.43;5.32;;;17.30;99.90;;;;;;4941211;28;20075;-85
2021/08/14 02:37:03;;;;;;;8.10;4.05;;;17.30;99.90;;;;;;4932663;28;20471;-69
2021/08/14 02:39:30;;;;;;;9.15;5.78;;;17.30;99.90;;;;;;4931740;28;20127;-68
2021/08/14 02:41:56;;;;;;;4.70;3.78;;;17.20;99.90;;;;;;4932774;28;20131;-74
2021/08/14 02:44:23;;;;;;;6.53;3.95;;;17.20;99.90;;;;;;4932933;28;20062;-68
2021/08/14 02:46:50;;;;;;;4.95;4.07;;;17.20;99.90;;;;;;4932889;28;20075;-75
2021/08/14 02:49:17;;;;;;;6.95;4.72;;;17.20;99.90;;;;;;4931351;28;20044;-76
2021/08/14 02:51:44;;;;;;;8.77;4.57;;;17.20;99.90;;;;;;4932141;28;20075;-71
2021/08/14 02:54:11;;;;;;;8.05;4.03;;;17.10;99.90;;;;;;4933042;28;20075;-69
2021/08/14 02:56:38;;;;;;;7.70;4.40;;;17.10;99.90;;;;;;4932118;28;20075;-78
2021/08/14 02:59:04;;;;;;;6.05;4.15;;;17.10;99.90;;;;;;4936183;28;20083;-70
2021/08/14 03:01:31;;;;;;;10.07;5.75;;;17.10;99.90;;;;;;4935105;28;20071;-75
2021/08/14 03:03:58;;;;;;;9.18;4.38;;;17.00;99.90;;;;;;4935930;28;20178;-71
2021/08/14 03:06:27;;;;;;;4.75;3.83;;;17.00;99.90;;;;;;4935913;28;20056;-81
2021/08/14 03:08:55;;;;;;;6.13;4.30;;;17.00;99.90;;;;;;4936518;28;20052;-72
2021/08/14 03:11:21;;;;;;;8.77;5.03;;;17.00;99.90;;;;;;4934582;28;20075;-75
2021/08/14 03:13:49;;;;;;;10.20;4.00;;;17.00;99.90;;;;;;4936187;28;20201;-73
2021/08/14 03:16:16;;;;;;;5.03;4.18;;;16.90;99.90;;;;;;4936103;28;20128;-79
2021/08/14 03:18:42;;;;;;;9.40;5.03;;;16.90;99.90;;;;;;4935695;28;20130;-77
2021/08/14 03:21:09;;;;;;;6.20;5.10;;;16.90;99.90;;;;;;4935709;28;20059;-70
2021/08/14 03:23:36;;;;;;;11.35;4.07;;;16.90;99.90;;;;;;4934516;28;20082;-70
2021/08/14 03:26:03;;;;;;;12.73;5.40;;;16.90;99.90;;;;;;4935196;28;20427;-75
2021/08/14 03:28:30;;;;;;;4.95;3.42;;;17.00;99.90;;;;;;4935906;28;20098;-71
2021/08/14 03:30:57;;;;;;;6.75;4.13;;;17.00;99.90;;;;;;4935617;28;20379;-71
2021/08/14 03:33:24;;;;;;;5.40;3.58;;;17.00;99.90;;;;;;4933732;28;20044;-72
2021/08/14 03:35:51;;;;;;;8.35;3.30;;;17.00;99.90;;;;;;4935563;28;20071;-68
2021/08/14 03:38:18;;;;;;;5.10;3.95;;;17.00;99.90;;;;;;4935828;28;20051;-81
2021/08/14 03:40:45;;;;;;;6.70;3.95;;;17.00;99.90;;;;;;4935883;28;20395;-79
2021/08/14 03:43:12;;;;;;;8.82;3.30;;;17.00;99.90;;;;;;4935521;28;20462;-69
2021/08/14 03:45:38;;;;;;;6.78;3.63;;;17.00;99.90;;;;;;4933602;28;20078;-68
2021/08/14 03:48:06;;;;;;;4.72;3.72;;;17.00;99.90;;;;;;4935010;28;20377;-79
2021/08/14 03:50:32;;;;;;;5.53;2.67;;;17.00;99.90;;;;;;4935479;28;20052;-70
2021/08/14 03:52:59;;;;;;;7.45;4.18;;;17.00;99.90;;;;;;4935416;28;20115;-78
2021/08/14 03:55:26;;;;;;;6.47;3.47;;;17.00;99.90;;;;;;4934004;28;20079;-78
2021/08/14 03:57:53;;;;;;;5.57;3.17;;;17.00;99.90;;;;;;4934901;28;20086;-78
2021/08/14 04:00:21;;;;;;;7.53;3.10;;;17.00;99.90;;;;;;4935040;28;20198;-75
2021/08/14 04:02:47;;;;;;;7.22;2.83;;;17.00;99.90;;;;;;4935641;28;20075;-73
2021/08/14 04:05:15;;;;;;;8.93;4.68;;;17.10;99.90;;;;;;4933398;28;20070;-70
2021/08/14 04:07:42;;;;;;;9.77;4.88;;;17.10;99.90;;;;;;4935289;28;20051;-71
2021/08/14 04:10:09;;;;;;;7.00;4.18;;;17.10;99.90;;;;;;4935242;28;20039;-69
2021/08/14 04:12:36;;;;;;;8.38;2.88;;;17.10;99.90;;;;;;4935080;28;20078;-72
2021/08/14 04:15:05;;;;;;;8.15;3.30;;;17.10;99.90;;;;;;4935181;28;20091;-73
2021/08/14 04:17:36;;;;;;;6.93;4.75;;;17.10;99.90;;;;;;4933549;28;20100;-77
2021/08/14 04:20:04;;;;;;;5.25;2.63;;;17.10;99.90;;;;;;4934824;28;20517;-79
2021/08/14 04:22:31;;;;;;;4.57;2.75;;;17.00;99.90;;;;;;4935008;28;20052;-75
2021/08/14 04:24:58;;;;;;;5.68;3.63;;;17.10;99.90;;;;;;4934770;28;20044;-77
2021/08/14 04:27:24;;;;;;;4.88;3.28;;;17.10;99.90;;;;;;4933612;28;20086;-72
2021/08/14 04:29:51;;;;;;;6.57;3.03;;;17.20;99.90;;;;;;4934574;28;20071;-75
2021/08/14 04:32:18;;;;;;;7.28;3.38;;;17.20;99.90;;;;;;4935154;28;20418;-78
2021/08/14 04:34:45;;;;;;;6.28;3.47;;;17.20;99.90;;;;;;4934645;28;20577;-82
2021/08/14 04:37:13;;;;;;;8.02;3.78;;;17.20;99.90;;;;;;4934887;28;20103;-70
2021/08/14 04:39:40;;;;;;;6.78;3.85;;;17.20;99.90;;;;;;4952535;28;20051;-75
2021/08/14 04:42:07;;;;;;;16.83;5.35;;;17.20;99.90;;;;;;4953859;28;20074;-67
2021/08/14 04:44:34;;;;;;;6.57;4.43;;;17.20;99.90;;;;;;4953770;28;20047;-68
2021/08/14 04:47:02;;;;;;;9.82;3.58;;;17.20;99.90;;;;;;4953617;28;20096;-80
2021/08/14 04:49:29;;;;;;;5.97;3.60;;;17.20;99.90;;;;;;4952285;28;20347;-71
2021/08/14 04:51:56;;;;;;;8.25;3.80;;;17.20;99.90;;;;;;4953264;28;20071;-73
2021/08/14 04:54:23;;;;;;;4.85;3.63;;;17.20;99.90;;;;;;4953616;28;20081;-77
2021/08/14 04:56:50;;;;;;;5.65;5.15;;;17.10;99.90;;;;;;4953755;28;20054;-68
2021/08/14 04:59:16;;;;;;;11.23;4.60;;;17.20;99.90;;;;;;4951461;28;20071;-69
2021/08/14 05:01:43;;;;;;;4.13;3.72;;;17.20;99.90;;;;;;4953055;28;20441;-74
2021/08/14 05:04:10;;;;;;;5.85;4.32;;;17.10;99.90;;;;;;4953368;28;20418;-70
2021/08/14 05:06:38;;;;;;;14.90;4.15;;;17.20;99.90;;;;;;4952734;28;20434;-73
2021/08/14 05:09:06;;;;;;;13.95;4.85;;;17.20;99.90;;;;;;4953427;28;20055;-79
2021/08/14 05:11:33;;;;;;;5.72;3.70;;;17.20;99.90;;;;;;4951814;28;20047;-71
2021/08/14 05:14:00;;;;;;;7.85;4.05;;;17.20;99.90;;;;;;4953328;28;20043;-74
2021/08/14 05:16:27;;;;;;;11.70;4.55;;;17.20;99.90;;;;;;4952877;28;20063;-77
2021/08/14 05:18:54;;;;;;;12.35;4.25;;;17.30;99.90;;;;;;4953224;28;20047;-70
2021/08/14 05:21:21;;;;;;;8.77;3.78;;;17.30;99.90;;;;;;4978114;28;20075;-74
2021/08/14 05:23:48;;;;;;;8.32;3.92;;;17.20;99.90;;;;;;4933895;28;20110;-81
2021/08/14 05:26:15;;;;;;;7.15;4.22;;;17.20;99.90;;;;;;4933688;28;20106;-77
2021/08/14 05:28:42;;;;;;;10.48;6.05;;;17.20;99.90;;;;;;4934056;28;20131;-75
2021/08/14 05:31:09;;;;;;;8.02;4.13;;;17.20;99.90;;;;;;4933563;28;20075;-71
2021/08/14 05:33:36;;;;;;;5.38;3.03;;;17.20;99.90;;;;;;4931956;28;20478;-75
2021/08/14 05:36:03;;;;;;;8.48;3.55;;;17.20;99.90;;;;;;4933632;28;20474;-76
2021/08/14 05:38:30;;;;;;;4.15;3.40;;;17.20;99.90;;;;;;4933610;28;20051;-69
2021/08/14 05:40:57;;;;;;;6.25;3.75;;;17.20;99.90;;;;;;4933266;28;20044;-72
2021/08/14 05:43:24;;;;;;;7.07;4.00;;;17.20;99.90;;;;;;4931932;28;20404;-70
2021/08/14 05:45:51;;;;;;;7.97;3.67;;;17.20;99.90;;;;;;4933439;28;20470;-70
2021/08/14 05:48:18;;;;;;;8.40;4.38;;;17.20;99.90;;;;;;4933433;28;20149;-68
2021/08/14 05:50:46;;;;;;;12.20;3.75;;;17.30;99.90;;;;;;4933471;28;20127;-72
2021/08/14 05:53:14;;;;;;;9.45;5.30;;;17.30;99.90;;;;;;4933531;28;20356;-71
2021/08/14 05:55:41;;;;;;;9.18;4.85;;;17.30;99.90;;;;;;4951125;28;20074;-69
2021/08/14 05:58:08;;;;;;;9.73;3.78;;;17.30;99.90;;;;;;4952544;28;20039;-73
2021/08/14 06:00:35;;;;;;;10.55;4.13;;;17.30;99.90;;;;;;4951962;28;20051;-81
2021/08/14 06:03:02;;;;;;;8.13;3.58;;;17.20;99.90;;;;;;4952095;28;20081;-70
2021/08/14 06:05:29;;;;;;;9.10;4.85;;;17.20;99.90;;;;;;4950583;28;20055;-72
2021/08/14 06:07:56;;;;;;;13.93;6.18;;;17.30;99.90;;;;;;4952215;28;20067;-78
2021/08/14 06:10:23;;;;;;;9.45;3.97;;;17.30;99.90;;;;;;4952134;28;20047;-70
2021/08/14 06:12:50;;;;;;;11.32;5.25;;;17.30;99.90;;;;;;4952229;28;20438;-73
2021/08/14 06:15:18;;;;;;;9.82;5.82;;;17.20;99.90;;;;;;4950918;28;20488;-71
2021/08/14 06:17:45;;;;;;;11.80;4.78;;;17.20;99.90;;;;;;4952340;28;20126;-81
2021/08/14 06:20:12;;;;;;;5.75;4.88;;;17.20;99.90;;;;;;4952517;28;20115;-78
2021/08/14 06:22:43;;;;;;;12.20;4.72;;;17.20;99.90;;;;;;4952026;28;20441;-70
2021/08/14 06:25:11;;;;;;;11.10;4.45;;;17.20;99.90;;;;;;4951715;28;20055;-73
2021/08/14 06:27:38;;;;;;;12.85;4.18;;;17.20;99.90;;;;;;4950181;28;20098;-76
2021/08/14 06:30:06;;;;;;;9.98;4.45;;;17.30;99.90;;;;;;4952341;28;20097;-71
2021/08/14 06:32:34;;;;;;;15.45;5.45;;;17.30;99.90;;;;;;4952999;28;20070;-70
2021/08/14 06:35:01;;;;;;;10.73;4.75;;;17.30;99.90;;;;;;4956296;28;20110;-71
2021/08/14 06:37:27;;;;;;;11.90;5.10;;;17.30;99.90;;;;;;4954288;28;20458;-71
2021/08/14 06:39:54;;;;;;;10.77;4.28;;;17.30;99.90;;;;;;4955674;28;20047;-75
2021/08/14 06:42:21;;;;;;;10.57;5.13;;;17.20;99.90;;;;;;4955847;28;20093;-80
2021/08/14 06:44:48;;;;;;;16.75;4.90;;;17.30;99.90;;;;;;4955885;28;20117;-73
2021/08/14 06:47:15;;;;;;;10.43;5.65;;;17.30;99.90;;;;;;4954120;28;20055;-71
2021/08/14 06:49:42;;;;;;;9.40;4.45;;;17.30;99.90;;;;;;4955639;28;20102;-71
2021/08/14 06:52:09;;;;;;;9.52;4.68;;;17.40;99.90;;;;;;4955718;28;20118;-72
2021/08/14 06:54:35;;;;;;;13.07;4.63;;;17.40;99.90;;;;;;4955639;28;20051;-71
2021/08/14 06:57:03;;;;;;;10.15;4.38;;;17.30;99.90;;;;;;4955612;28;20110;-69
2021/08/14 06:59:29;;;;;;;12.30;6.10;;;17.30;99.90;;;;;;4954018;28;20105;-77
2021/08/14 07:01:56;;;;;;;16.05;4.95;;;17.30;99.90;;;;;;4955286;28;20090;-69
2021/08/14 07:04:23;;;;;;;12.10;6.10;;;17.30;99.90;;;;;;4955102;28;20138;-71
2021/08/14 07:06:50;;;;;;;8.07;5.50;;;17.30;99.90;;;;;;4955337;28;20062;-79
2021/08/14 07:09:18;;;;;;;14.07;5.10;;;17.30;99.90;;;;;;4953915;28;20094;-78
2021/08/14 07:11:45;;;;;;;13.55;5.43;;;17.40;99.90;;;;;;4954840;28;20055;-68
2021/08/14 07:14:12;;;;;;;9.95;4.03;;;17.40;99.90;;;;;;4955305;28;20114;-82
2021/08/14 07:16:39;;;;;;;15.30;5.78;;;17.40;99.90;;;;;;4955227;28;20044;-72
2021/08/14 07:19:07;;;;;;;16.80;5.93;;;17.30;99.90;;;;;;4955411;28;20354;-71
2021/08/14 07:21:34;;;;;;;12.85;4.10;;;17.30;99.90;;;;;;4953815;28;20235;-77
2021/08/14 07:24:01;;;;;;;11.95;5.07;;;17.30;99.90;;;;;;4955075;28;20331;-71
2021/08/14 07:26:28;;;;;;;12.18;4.25;;;17.40;99.90;;;;;;4954855;28;20445;-70
2021/08/14 07:28:55;;;;;;;10.52;4.53;;;17.50;99.90;;;;;;4955030;28;20083;-71
2021/08/14 07:31:22;;;;;;;10.18;4.47;;;17.50;99.90;;;;;;4953684;28;20466;-74
2021/08/14 07:33:49;;;;;;;11.57;5.00;;;17.50;99.90;;;;;;4954622;28;20067;-80
2021/08/14 07:36:16;;;;;;;12.00;5.28;;;17.50;99.90;;;;;;4955014;28;20129;-78
2021/08/14 07:38:42;;;;;;;7.45;3.33;;;17.60;99.90;;;;;;4954841;28;20071;-72
2021/08/14 07:41:09;;;;;;;10.30;4.10;;;17.70;99.90;;;;;;4955079;28;20601;-70
2021/08/14 07:43:36;;;;;;;10.07;4.47;;;17.70;99.90;;;;;;4952698;28;20093;-75
2021/08/14 07:46:03;;;;;;;8.35;4.60;;;17.70;99.90;;;;;;4954967;28;20047;-68
2021/08/14 07:48:30;;;;;;;8.75;3.97;;;17.70;99.90;;;;;;4954777;28;20057;-75
2021/08/14 07:50:57;;;;;;;9.45;4.35;;;17.70;99.90;;;;;;4954826;28;20082;-71
2021/08/14 07:53:24;;;;;;;6.95;5.53;;;17.70;99.90;;;;;;4953235;28;20103;-77
2021/08/14 07:55:51;;;;;;;9.38;3.42;;;17.70;99.90;;;;;;4954561;28;20074;-78
2021/08/14 07:58:18;;;;;;;7.35;3.58;;;17.70;99.90;;;;;;4954685;28;20051;-68
2021/08/14 08:00:45;;;;;;;7.75;3.10;;;17.80;99.90;;;;;;4954505;28;20090;-78
2021/08/14 08:03:12;;;;;;;7.57;4.20;;;17.80;99.90;;;;;;4955102;28;20055;-74
2021/08/14 08:05:39;;;;;;;13.88;3.80;;;17.90;99.90;;;;;;4952439;28;20050;-71
2021/08/14 08:08:07;;;;;;;5.95;4.53;;;17.90;99.90;;;;;;4954994;28;20074;-74
2021/08/14 08:10:35;;;;;;;10.80;5.18;;;17.90;99.90;;;;;;4954555;28;20051;-73
2021/08/14 08:13:03;;;;;;;8.25;4.30;;;17.90;99.90;;;;;;4954222;28;20079;-75
2021/08/14 08:15:30;;;;;;;7.90;3.90;;;18.00;99.90;;;;;;4953109;28;20079;-74
2021/08/14 08:17:57;;;;;;;10.82;5.45;;;18.00;99.90;;;;;;4954521;28;20055;-74
2021/08/14 08:20:24;;;;;;;14.50;4.55;;;18.10;99.90;;;;;;4954445;28;20098;-71
2021/08/14 08:22:51;;;;;;;7.25;3.78;;;18.10;99.90;;;;;;4954568;28;20442;-74
2021/08/14 08:25:19;;;;;;;8.52;3.38;;;18.10;99.90;;;;;;4952718;28;20117;-75
2021/08/14 08:27:49;;;;;;;9.60;3.88;;;18.10;99.90;;;;;;4953790;28;20043;-76
2021/08/14 08:30:18;;;;;;;8.45;3.03;;;18.10;99.90;;;;;;4954122;28;20598;-72
2021/08/14 08:32:46;;;;;;;8.55;3.22;;;18.10;99.90;;;;;;4954330;28;20074;-67
2021/08/14 08:35:14;;;;;;;9.70;4.32;;;18.00;99.90;;;;;;4953115;28;20051;-68
2021/08/14 08:37:41;;;;;;;16.25;3.50;;;18.00;99.90;;;;;;4953667;28;20071;-69
2021/08/14 08:40:12;;;;;;;;;;;18.10;99.90;;;;;;4984176;28;20055;-71
2021/08/14 08:42:40;;;;;;;10.90;3.38;;;18.20;99.90;;;;;;4953378;28;20285;-69
2021/08/14 08:45:07;;;;;;;9.38;3.17;;;18.30;99.90;;;;;;4953911;28;20078;-75
2021/08/14 08:47:38;;;;;;;10.93;3.80;;;18.40;99.90;;;;;;4952731;28;20478;-70
2021/08/14 08:50:08;;;;;;;9.02;3.40;;;18.40;99.90;;;;;;4953808;28;20047;-73
2021/08/14 08:52:35;;;;;;;13.00;4.37;;;18.30;99.90;;;;;;4942830;28;20519;-77
2021/08/14 08:55:03;;;;;;;10.65;3.78;;;18.30;99.90;;;;;;4933938;28;20079;-74
2021/08/14 08:57:30;;;;;;;10.55;3.92;;;18.20;99.90;;;;;;4932823;28;20111;-73
2021/08/14 08:59:58;;;;;;;10.15;4.40;;;18.40;99.90;;;;;;4934081;28;20111;-78
2021/08/14 09:02:33;;;;;;;13.18;4.82;;;18.50;99.90;;;;;;4948646;29;20139;-75
2021/08/14 09:05:19;;;;;;;8.45;4.15;;;18.40;99.90;;;;;;4934597;28;20063;-72
2021/08/14 09:07:50;;;;;;;14.20;4.10;;;18.40;99.90;;;;;;4951843;28;20047;-75
2021/08/14 09:10:22;;;;;;;8.48;3.20;;;18.40;99.90;;;;;;4953347;28;20079;-81
2021/08/14 09:12:49;;;;;;;8.13;4.00;;;18.30;99.90;;;;;;4953415;28;20126;-75
2021/08/14 09:15:29;;;;;;;10.73;3.58;;;18.40;99.90;;;;;;4951498;28;20051;-77
2021/08/14 09:18:01;;;;;;;6.60;2.95;;;18.60;99.90;;;;;;4953281;28;20047;-71
2021/08/14 09:20:28;;;;;;;17.02;6.72;;;18.50;99.90;;;;;;4953177;28;20418;-70
2021/08/14 09:23:04;;;;;;;9.95;2.97;;;18.50;99.90;;;;;;4953107;28;20551;-72
2021/08/14 09:25:42;;;;;;;11.48;4.18;;;18.60;99.90;;;;;;4951683;28;20051;-70
2021/08/14 09:28:11;;;;;;;7.53;3.58;;;18.70;99.90;;;;;;4952886;28;20154;-75
2021/08/14 09:30:47;;;;;;;11.30;3.55;;;18.80;99.90;;;;;;4952693;28;20075;-73
2021/08/14 09:33:36;;;;;;;5.95;2.85;;;18.90;99.90;;;;;;4951496;28;20055;-70
2021/08/14 09:36:06;;;;;;;9.73;3.67;;;18.90;99.90;;;;;;4952888;28;20094;-68
2021/08/14 09:38:49;;;;;;;11.15;3.75;;;18.90;99.90;;;;;;4952527;28;20114;-68
2021/08/14 09:41:16;;;;;;;10.82;3.00;;;18.90;99.90;;;;;;4951584;28;20062;-74
2021/08/14 09:43:44;;;;;;;18.67;4.55;;;18.90;99.90;;;;;;4952739;28;20054;-79
2021/08/14 09:46:11;;;;;;;9.75;3.75;;;19.00;99.90;;;;;;4952801;28;20047;-70
2021/08/14 09:48:39;;;;;;;10.60;4.03;;;19.00;99.90;;;;;;4952984;28;20077;-72
2021/08/14 09:51:30;;;;;;;12.68;3.22;;;19.00;99.90;;;;;;4952544;28;20482;-72
2021/08/14 09:54:03;;;;;;;8.18;3.88;;;18.80;99.90;;;;;;4951728;28;20071;-74
2021/08/14 09:56:37;;;;;;;10.05;3.42;;;18.80;99.90;;;;;;4953024;28;20098;-68
2021/08/14 09:59:06;;;;;;;7.13;2.97;;;18.80;99.90;;;;;;4953072;28;20051;-67
2021/08/14 10:01:39;;;;;;;4.55;2.60;;;18.80;99.90;;;;;;4951349;28;21769;-70
2021/08/14 10:04:08;;;;;;;7.13;3.10;;;18.80;99.90;;;;;;4952559;28;20138;-72
2021/08/14 10:06:35;;;;;;;13.73;3.03;;;18.90;99.90;;;;;;4952120;28;20051;-74
2021/08/14 10:09:02;;;;;;;11.55;5.53;;;19.10;99.90;;;;;;4952495;28;20454;-69
2021/08/14 10:11:29;;;;;;;13.52;2.63;;;19.30;99.90;;;;;;4950905;28;20051;-72
2021/08/14 10:13:56;;;;;;;6.95;3.53;;;19.30;99.90;;;;;;4952388;28;20470;-76
2021/08/14 10:16:24;;;;;;;7.35;4.05;;;19.30;99.90;;;;;;4952177;28;20487;-69
2021/08/14 10:18:52;;;;;;;6.25;3.13;;;19.30;99.90;;;;;;4952573;28;20047;-68
2021/08/14 10:21:23;;;;;;;8.95;3.15;;;19.40;99.90;;;;;;4950679;28;20093;-75
2021/08/14 10:23:54;;;;;;;6.80;3.63;;;19.40;99.90;;;;;;4952479;28;20051;-68
2021/08/14 10:26:27;;;;;;;9.93;3.90;;;19.40;99.90;;;;;;4952186;28;20079;-79
2021/08/14 10:28:57;;;;;;;8.63;4.47;;;19.50;99.90;;;;;;4952565;28;20113;-72
2021/08/14 10:31:30;;;;;;;11.32;3.78;;;19.50;99.90;;;;;;4950847;28;20087;-70
2021/08/14 10:33:58;;;;;;;7.93;3.42;;;19.50;99.90;;;;;;4952284;28;20065;-74
2021/08/14 10:36:26;;;;;;;9.98;3.78;;;19.40;99.90;;;;;;4952481;28;20142;-67
2021/08/14 10:38:54;;;;;;;10.20;3.15;;;19.50;99.90;;;;;;4952339;28;20075;-76
2021/08/14 10:41:39;;;;;;;9.93;3.53;;;19.50;99.90;;;;;;4950828;28;20121;-77
2021/08/14 10:44:06;;;;;;;4.47;2.35;;;19.80;99.90;;;;;;4952410;28;20047;-70
2021/08/14 10:46:44;;;;;;;8.27;3.20;;;19.90;99.90;;;;;;4952152;28;20048;-75
2021/08/14 10:49:20;;;;;;;7.85;3.13;;;20.00;99.90;;;;;;4952366;28;20055;-67
2021/08/14 10:51:47;;;;;;;6.28;3.50;;;20.00;99.90;;;;;;4951208;28;20105;-73
2021/08/14 10:54:29;;;;;;;10.50;5.22;;;20.00;99.90;;;;;;4952274;28;20094;-69
2021/08/14 10:57:01;;;;;;;10.95;3.60;;;20.10;99.90;;;;;;4952445;28;20039;-67
2021/08/14 10:59:57;;;;;;;7.07;2.20;;;20.00;99.90;;;;;;4950609;28;20457;-66
2021/08/14 11:02:24;;;;;;;7.50;3.47;;;19.90;99.90;;;;;;4951660;28;20063;-65
2021/08/14 11:04:56;;;;;;;10.00;3.90;;;19.90;99.90;;;;;;4952040;28;20063;-67
2021/08/14 11:07:22;;;;;;;7.57;2.58;;;19.90;99.90;;;;;;4950574;28;20347;-69
2021/08/14 11:09:52;;;;;;;8.15;3.20;;;20.10;99.90;;;;;;4952408;28;20083;-68
2021/08/14 11:12:47;;;;;;;8.85;2.47;;;20.30;99.90;;;;;;4951609;28;20110;-71
2021/08/14 11:15:21;;;;;;;7.15;2.95;;;20.30;99.90;;;;;;4950615;28;20106;-68
2021/08/14 11:17:51;;;;;;;5.97;2.45;;;20.40;99.90;;;;;;4951834;28;20090;-69
2021/08/14 11:20:24;;;;;;;6.00;2.17;;;20.30;99.90;;;;;;4955361;28;20047;-69
2021/08/14 11:22:58;;;;;;;8.30;2.60;;;20.40;99.90;;;;;;4955632;28;20051;-66
2021/08/14 11:25:29;;;;;;;6.68;2.15;;;20.50;99.90;;;;;;4953870;28;20075;-72
2021/08/14 11:28:03;;;;;;;12.35;3.10;;;20.40;99.90;;;;;;4955535;28;20102;-67
2021/08/14 11:30:35;;;;;;;11.68;2.92;;;20.60;99.90;;;;;;4955390;28;20526;-67
2021/08/14 11:33:05;;;;;;;8.23;2.53;;;20.60;99.90;;;;;;4955393;28;20047;-67
2021/08/14 11:35:34;;;;;;;10.98;2.58;;;20.60;99.90;;;;;;4953710;28;20085;-69
2021/08/14 11:38:07;;;;;;;8.45;4.45;;;20.70;99.90;;;;;;4955276;28;20074;-69
2021/08/14 11:40:36;;;;;;;6.10;2.58;;;20.50;99.90;;;;;;4955626;28;20054;-69
2021/08/14 11:43:04;;;;;;;9.73;2.80;;;20.30;99.90;;;;;;4955084;28;20112;-67
2021/08/14 11:45:33;;;;;;;6.35;2.70;;;20.30;99.90;;;;;;4953667;28;20082;-67
2021/08/14 11:48:01;;;;;;;11.63;4.25;;;20.30;99.90;;;;;;4954357;28;20121;-67
2021/08/14 11:50:35;;;;;;;5.38;2.00;;;20.20;99.90;;;;;;4955224;28;20075;-66
2021/08/14 11:53:07;;;;;;;5.03;1.88;;;20.40;99.90;;;;;;4955513;28;20087;-66
2021/08/14 11:55:34;;;;;;;7.82;2.67;;;20.40;99.90;;;;;;4953309;28;20051;-67
2021/08/14 11:58:02;;;;;;;7.20;3.08;;;20.50;99.90;;;;;;4954565;28;20078;-72
2021/08/14 12:00:31;;;;;;;5.63;3.10;;;20.50;99.90;;;;;;4954690;28;20083;-67
2021/08/14 12:03:15;;;;;;;8.05;2.70;;;20.50;99.90;;;;;;4954810;28;20098;-68
2021/08/14 12:05:44;;;;;;;13.50;2.28;;;20.50;99.90;;;;;;4953327;28;20110;-67
2021/08/14 12:08:34;;;;;;;5.00;2.20;;;20.50;99.90;;;;;;4954773;28;20052;-68
2021/08/14 12:11:10;;;;;;;5.97;1.80;;;20.50;99.90;;;;;;4955016;28;20057;-66
2021/08/14 12:13:37;;;;;;;4.55;2.25;;;20.60;99.90;;;;;;4952945;28;20098;-67
2021/08/14 12:16:22;;;;;;;10.50;2.83;;;20.80;99.90;;;;;;4954415;28;20082;-66
2021/08/14 12:18:51;;;;;;;7.22;2.88;;;20.80;99.90;;;;;;4954726;28;20142;-66
2021/08/14 12:21:25;;;;;;;4.07;1.75;;;20.70;99.90;;;;;;4952911;28;20047;-71
2021/08/14 12:24:05;;;;;;;4.53;1.90;;;20.90;99.90;;;;;;4954635;28;20039;-67
2021/08/14 12:26:33;;;;;;;10.52;2.88;;;21.00;99.90;;;;;;4954220;28;20047;-66
2021/08/14 12:29:03;;;;;;;8.15;2.08;;;21.00;99.90;;;;;;4954431;28;20390;-66
2021/08/14 12:31:42;;;;;;;8.67;2.63;;;20.90;99.90;;;;;;4952858;28;20051;-66
2021/08/14 12:34:24;;;;;;;12.02;2.22;;;20.80;99.90;;;;;;4954670;28;20122;-66
2021/08/14 12:37:10;;;;;;;6.78;1.58;;;20.90;99.90;;;;;;4954470;28;20051;-67
2021/08/14 12:39:56;;;;;;;6.15;1.58;;;20.80;99.90;;;;;;4952719;28;20117;-69
2021/08/14 12:42:29;;;;;;;8.95;2.00;;;20.80;99.90;;;;;;4954087;28;20055;-67
2021/08/14 12:44:57;;;;;;;9.13;2.75;;;21.00;99.90;;;;;;4954186;28;20051;-66
2021/08/14 12:47:34;;;;;;;5.30;1.70;;;21.10;99.90;;;;;;4952654;28;20450;-69
2021/08/14 12:50:11;;;;;;;9.65;2.10;;;21.00;99.90;;;;;;4953981;28;20569;-66
2021/08/14 12:52:40;;;;;;;6.90;2.13;;;20.80;99.90;;;;;;4953810;28;20043;-67
2021/08/14 12:55:07;;;;;;;6.82;2.72;;;20.80;99.90;;;;;;4953922;28;20081;-69